IVAO ES Tour IFR-A 2013 Etapa 8

IVAO ES Tour IFR-A 2013 Etapa 8

Santiago de Compostela ( LEST ) – Barcelona ( LEBL )

Datos generales del vuelo
 Fecha 24-11-2013  Avión  B737-800 winglets
 Ruta FORNO UN733 ZMR UN976 DGO UN725 LOBAR  Nivel de vuelo FL360
 Origen LEST  Destino LEBL
 Velocidad M0.790  Distancia 540Nm
 Distancia real 437Nm ETE 01:20
 ETA 20:50Z  FOB 03:00
 Hora salida 19:20Z Hora llegada 20:50Z
 Pax 149 TOW 69474Kg
 MTOW  78471Kg Fuel 8220Kg
 Fuel utilizado 6158Kg ZFW 61253Kg
Peso carga 7959Kg Peso pasaje 11881Kg
V1 133Knots Vr 143Knots
 V2 152Knots  Vref 149Knots

 

Datos LEST

Metar: LEST 241830Z 07011G23KT 030V110 9999 SCT026 08/04 Q1026 NOSIG
Salida: FORNO2B

Datos LEBL

Metar: LEBL 242000Z 32007KT 9999 FEW025 07/02 Q1015 NOSIG
Llegada: LOBA3T
App: ILS Z RWY25R transición SLL

 

 

 

Deja una respuesta